Sanville, Virginia
Current Conditions -  °F | °C
As of 10:35 AM on Friday 24 Oct 2014 (Local Time) from KMTV Reporting Station
Clear Clear  
Wind Chill: 59°   Ceiling: Unl
Heat Index: 59°   Visibility: 10mi
Dew Point: 42°   Wind: 8mph
Humidity: 52%   Direction: 320°NW
Pressure: 30.1"   Gusts: NA
Location:  36.7587°N, 79.9987°W
Report Text: KMTV 241435Z AUTO 32007KT 10SM CLR 15/06 A3010 RMK AO2 T01520055
Loading
Personal Weather Stations






























Interactive Weather Map
Tropical Storm Tracking
New forecast layout! Learn more

10-Day Weather Forecast

Advertisements
Track Severe Weather on mobile